sensor_id;sensor_type;location;lat;lon;timestamp;P1;durP1;ratioP1;P2;durP2;ratioP2
56265;SDS011;42174;50.936;6.858;2023-06-22T00:02:16;4.68;;;2.50;;
56265;SDS011;42174;50.936;6.858;2023-06-22T00:05:01;3.53;;;2.33;;
56265;SDS011;42174;50.936;6.858;2023-06-22T00:07:45;3.03;;;2.30;;
56265;SDS011;42174;50.936;6.858;2023-06-22T00:10:29;2.78;;;1.88;;
56265;SDS011;42174;50.936;6.858;2023-06-22T00:13:13;4.65;;;2.80;;
56265;SDS011;42174;50.936;6.858;2023-06-22T00:15:58;3.28;;;2.58;;
56265;SDS011;42174;50.936;6.858;2023-06-22T00:18:42;4.43;;;2.88;;
56265;SDS011;42174;50.936;6.858;2023-06-22T00:21:30;2.40;;;2.20;;
56265;SDS011;42174;50.936;6.858;2023-06-22T00:24:14;2.45;;;1.83;;
56265;SDS011;42174;50.936;6.858;2023-06-22T00:26:59;2.20;;;1.52;;
56265;SDS011;42174;50.936;6.858;2023-06-22T00:29:43;2.65;;;2.42;;
56265;SDS011;42174;50.936;6.858;2023-06-22T00:32:27;3.60;;;2.75;;
56265;SDS011;42174;50.936;6.858;2023-06-22T00:35:12;3.42;;;2.33;;
56265;SDS011;42174;50.936;6.858;2023-06-22T00:37:56;7.28;;;2.05;;
56265;SDS011;42174;50.936;6.858;2023-06-22T00:40:44;3.10;;;1.75;;
56265;SDS011;42174;50.936;6.858;2023-06-22T00:43:28;3.28;;;2.92;;
56265;SDS011;42174;50.936;6.858;2023-06-22T00:46:12;1.92;;;1.77;;
56265;SDS011;42174;50.936;6.858;2023-06-22T00:48:56;3.13;;;2.42;;
56265;SDS011;42174;50.936;6.858;2023-06-22T00:51:41;2.78;;;2.50;;
56265;SDS011;42174;50.936;6.858;2023-06-22T00:54:29;3.65;;;1.90;;
56265;SDS011;42174;50.936;6.858;2023-06-22T00:57:13;4.30;;;1.60;;
56265;SDS011;42174;50.936;6.858;2023-06-22T00:59:59;4.10;;;2.08;;
56265;SDS011;42174;50.936;6.858;2023-06-22T01:02:44;3.65;;;2.42;;
56265;SDS011;42174;50.936;6.858;2023-06-22T01:05:35;3.22;;;1.95;;
56265;SDS011;42174;50.936;6.858;2023-06-22T01:11:28;2.97;;;2.47;;
56265;SDS011;42174;50.936;6.858;2023-06-22T01:14:23;3.22;;;2.58;;
56265;SDS011;42174;50.936;6.858;2023-06-22T01:17:09;3.60;;;2.03;;
56265;SDS011;42174;50.936;6.858;2023-06-22T01:19:55;3.13;;;2.42;;
56265;SDS011;42174;50.936;6.858;2023-06-22T01:25:48;2.15;;;2.05;;
56265;SDS011;42174;50.936;6.858;2023-06-22T01:28:43;1.48;;;1.20;;
56265;SDS011;42174;50.936;6.858;2023-06-22T01:31:32;2.55;;;2.20;;
56265;SDS011;42174;50.936;6.858;2023-06-22T01:34:19;3.40;;;1.90;;
56265;SDS011;42174;50.936;6.858;2023-06-22T01:37:03;1.98;;;1.83;;
56265;SDS011;42174;50.936;6.858;2023-06-22T01:39:48;4.25;;;2.35;;
56265;SDS011;42174;50.936;6.858;2023-06-22T01:42:32;3.28;;;1.95;;
56265;SDS011;42174;50.936;6.858;2023-06-22T01:45:17;3.30;;;2.05;;
56265;SDS011;42174;50.936;6.858;2023-06-22T01:48:02;3.33;;;2.50;;
56265;SDS011;42174;50.936;6.858;2023-06-22T01:50:47;3.05;;;2.50;;
56265;SDS011;42174;50.936;6.858;2023-06-22T01:53:31;4.82;;;2.10;;
56265;SDS011;42174;50.936;6.858;2023-06-22T01:56:16;3.28;;;2.17;;
56265;SDS011;42174;50.936;6.858;2023-06-22T02:02:06;2.08;;;1.70;;
56265;SDS011;42174;50.936;6.858;2023-06-22T02:04:52;2.25;;;1.73;;
56265;SDS011;42174;50.936;6.858;2023-06-22T02:07:47;2.83;;;2.55;;
56265;SDS011;42174;50.936;6.858;2023-06-22T02:10:36;1.88;;;1.63;;
56265;SDS011;42174;50.936;6.858;2023-06-22T02:13:21;4.82;;;3.00;;
56265;SDS011;42174;50.936;6.858;2023-06-22T02:16:09;2.22;;;1.90;;
56265;SDS011;42174;50.936;6.858;2023-06-22T02:18:54;4.38;;;2.97;;
56265;SDS011;42174;50.936;6.858;2023-06-22T02:21:39;4.38;;;2.13;;
56265;SDS011;42174;50.936;6.858;2023-06-22T02:24:23;2.75;;;2.33;;
56265;SDS011;42174;50.936;6.858;2023-06-22T02:27:07;2.03;;;1.75;;
56265;SDS011;42174;50.936;6.858;2023-06-22T02:29:51;2.50;;;1.88;;
56265;SDS011;42174;50.936;6.858;2023-06-22T02:32:35;2.85;;;1.88;;
56265;SDS011;42174;50.936;6.858;2023-06-22T02:35:20;2.33;;;2.10;;
56265;SDS011;42174;50.936;6.858;2023-06-22T02:38:04;2.63;;;2.33;;
56265;SDS011;42174;50.936;6.858;2023-06-22T02:40:48;2.15;;;1.35;;
56265;SDS011;42174;50.936;6.858;2023-06-22T02:43:33;5.63;;;2.30;;
56265;SDS011;42174;50.936;6.858;2023-06-22T02:46:17;3.15;;;2.85;;
56265;SDS011;42174;50.936;6.858;2023-06-22T02:49:01;3.88;;;2.85;;
56265;SDS011;42174;50.936;6.858;2023-06-22T02:51:45;2.08;;;1.75;;
56265;SDS011;42174;50.936;6.858;2023-06-22T02:54:30;1.52;;;1.38;;
56265;SDS011;42174;50.936;6.858;2023-06-22T02:57:14;3.03;;;2.03;;
56265;SDS011;42174;50.936;6.858;2023-06-22T02:59:58;3.15;;;2.17;;
56265;SDS011;42174;50.936;6.858;2023-06-22T03:02:43;3.15;;;2.85;;
56265;SDS011;42174;50.936;6.858;2023-06-22T03:05:28;3.53;;;1.75;;
56265;SDS011;42174;50.936;6.858;2023-06-22T03:08:12;1.67;;;1.38;;
56265;SDS011;42174;50.936;6.858;2023-06-22T03:10:56;3.72;;;1.67;;
56265;SDS011;42174;50.936;6.858;2023-06-22T03:13:40;2.75;;;1.63;;
56265;SDS011;42174;50.936;6.858;2023-06-22T03:16:24;3.13;;;2.15;;
56265;SDS011;42174;50.936;6.858;2023-06-22T03:19:08;1.58;;;1.33;;
56265;SDS011;42174;50.936;6.858;2023-06-22T03:21:52;4.75;;;2.85;;
56265;SDS011;42174;50.936;6.858;2023-06-22T03:24:36;2.45;;;1.88;;
56265;SDS011;42174;50.936;6.858;2023-06-22T03:27:22;3.45;;;2.70;;
56265;SDS011;42174;50.936;6.858;2023-06-22T03:30:07;2.25;;;1.40;;
56265;SDS011;42174;50.936;6.858;2023-06-22T03:32:52;2.70;;;2.38;;
56265;SDS011;42174;50.936;6.858;2023-06-22T03:35:36;2.42;;;1.98;;
56265;SDS011;42174;50.936;6.858;2023-06-22T03:38:20;2.70;;;2.20;;
56265;SDS011;42174;50.936;6.858;2023-06-22T03:41:04;3.10;;;2.80;;
56265;SDS011;42174;50.936;6.858;2023-06-22T03:43:49;2.60;;;1.60;;
56265;SDS011;42174;50.936;6.858;2023-06-22T03:46:33;1.92;;;1.73;;
56265;SDS011;42174;50.936;6.858;2023-06-22T03:49:17;3.38;;;1.77;;
56265;SDS011;42174;50.936;6.858;2023-06-22T03:52:01;4.35;;;1.50;;
56265;SDS011;42174;50.936;6.858;2023-06-22T03:54:46;2.60;;;1.63;;
56265;SDS011;42174;50.936;6.858;2023-06-22T03:57:30;2.75;;;2.10;;
56265;SDS011;42174;50.936;6.858;2023-06-22T04:00:14;3.75;;;2.00;;
56265;SDS011;42174;50.936;6.858;2023-06-22T04:02:59;2.88;;;2.15;;
56265;SDS011;42174;50.936;6.858;2023-06-22T04:05:43;1.85;;;1.52;;
56265;SDS011;42174;50.936;6.858;2023-06-22T04:08:27;3.85;;;2.28;;
56265;SDS011;42174;50.936;6.858;2023-06-22T04:11:11;4.10;;;2.00;;
56265;SDS011;42174;50.936;6.858;2023-06-22T04:13:55;2.45;;;1.83;;
56265;SDS011;42174;50.936;6.858;2023-06-22T04:16:39;2.83;;;2.00;;
56265;SDS011;42174;50.936;6.858;2023-06-22T04:19:23;1.83;;;1.35;;
56265;SDS011;42174;50.936;6.858;2023-06-22T04:22:07;9.85;;;2.20;;
56265;SDS011;42174;50.936;6.858;2023-06-22T04:24:51;3.40;;;1.88;;
56265;SDS011;42174;50.936;6.858;2023-06-22T04:27:36;3.33;;;1.52;;
56265;SDS011;42174;50.936;6.858;2023-06-22T04:30:21;3.08;;;1.52;;
56265;SDS011;42174;50.936;6.858;2023-06-22T04:33:05;3.58;;;2.03;;
56265;SDS011;42174;50.936;6.858;2023-06-22T04:35:49;2.00;;;1.65;;
56265;SDS011;42174;50.936;6.858;2023-06-22T04:38:34;3.05;;;1.90;;
56265;SDS011;42174;50.936;6.858;2023-06-22T04:41:18;2.95;;;1.95;;
56265;SDS011;42174;50.936;6.858;2023-06-22T04:44:10;2.40;;;2.17;;
56265;SDS011;42174;50.936;6.858;2023-06-22T04:46:56;1.60;;;1.50;;
56265;SDS011;42174;50.936;6.858;2023-06-22T04:49:45;2.05;;;1.70;;
56265;SDS011;42174;50.936;6.858;2023-06-22T04:52:30;2.50;;;1.77;;
56265;SDS011;42174;50.936;6.858;2023-06-22T04:55:14;4.45;;;2.55;;
56265;SDS011;42174;50.936;6.858;2023-06-22T05:00:48;3.67;;;2.45;;
56265;SDS011;42174;50.936;6.858;2023-06-22T05:03:35;5.18;;;1.85;;
56265;SDS011;42174;50.936;6.858;2023-06-22T05:06:23;3.78;;;2.25;;
56265;SDS011;42174;50.936;6.858;2023-06-22T05:09:08;2.33;;;1.90;;
56265;SDS011;42174;50.936;6.858;2023-06-22T05:11:52;3.47;;;2.25;;
56265;SDS011;42174;50.936;6.858;2023-06-22T05:14:36;2.85;;;2.03;;
56265;SDS011;42174;50.936;6.858;2023-06-22T05:17:20;3.25;;;2.33;;
56265;SDS011;42174;50.936;6.858;2023-06-22T05:20:04;1.83;;;1.60;;
56265;SDS011;42174;50.936;6.858;2023-06-22T05:22:49;2.58;;;2.25;;
56265;SDS011;42174;50.936;6.858;2023-06-22T05:25:33;4.32;;;4.03;;
56265;SDS011;42174;50.936;6.858;2023-06-22T05:28:17;2.17;;;1.98;;
56265;SDS011;42174;50.936;6.858;2023-06-22T05:31:06;3.53;;;2.95;;
56265;SDS011;42174;50.936;6.858;2023-06-22T05:33:51;2.65;;;2.45;;
56265;SDS011;42174;50.936;6.858;2023-06-22T05:36:36;2.20;;;1.88;;
56265;SDS011;42174;50.936;6.858;2023-06-22T05:39:20;3.33;;;2.00;;
56265;SDS011;42174;50.936;6.858;2023-06-22T05:42:05;2.83;;;2.00;;
56265;SDS011;42174;50.936;6.858;2023-06-22T05:44:50;3.08;;;2.38;;
56265;SDS011;42174;50.936;6.858;2023-06-22T05:47:34;3.72;;;2.70;;
56265;SDS011;42174;50.936;6.858;2023-06-22T05:50:18;3.63;;;2.28;;
56265;SDS011;42174;50.936;6.858;2023-06-22T05:53:02;3.80;;;2.83;;
56265;SDS011;42174;50.936;6.858;2023-06-22T05:55:46;2.88;;;2.55;;
56265;SDS011;42174;50.936;6.858;2023-06-22T05:58:30;2.88;;;2.15;;
56265;SDS011;42174;50.936;6.858;2023-06-22T06:01:14;5.13;;;3.03;;
56265;SDS011;42174;50.936;6.858;2023-06-22T06:03:59;2.42;;;2.17;;
56265;SDS011;42174;50.936;6.858;2023-06-22T06:06:43;4.90;;;3.20;;
56265;SDS011;42174;50.936;6.858;2023-06-22T06:09:27;2.80;;;1.90;;
56265;SDS011;42174;50.936;6.858;2023-06-22T06:12:11;4.70;;;3.53;;
56265;SDS011;42174;50.936;6.858;2023-06-22T06:14:55;6.22;;;3.47;;
56265;SDS011;42174;50.936;6.858;2023-06-22T06:17:50;5.72;;;3.47;;
56265;SDS011;42174;50.936;6.858;2023-06-22T06:20:37;3.92;;;2.97;;
56265;SDS011;42174;50.936;6.858;2023-06-22T06:23:21;5.45;;;3.97;;
56265;SDS011;42174;50.936;6.858;2023-06-22T06:26:05;7.72;;;4.50;;
56265;SDS011;42174;50.936;6.858;2023-06-22T06:28:50;6.72;;;3.58;;
56265;SDS011;42174;50.936;6.858;2023-06-22T06:31:34;4.60;;;3.58;;
56265;SDS011;42174;50.936;6.858;2023-06-22T06:34:19;6.43;;;3.60;;
56265;SDS011;42174;50.936;6.858;2023-06-22T06:37:03;4.13;;;3.55;;
56265;SDS011;42174;50.936;6.858;2023-06-22T06:39:47;5.80;;;3.80;;
56265;SDS011;42174;50.936;6.858;2023-06-22T06:42:31;4.05;;;3.28;;
56265;SDS011;42174;50.936;6.858;2023-06-22T06:45:17;4.25;;;3.83;;
56265;SDS011;42174;50.936;6.858;2023-06-22T06:48:02;6.45;;;5.05;;
56265;SDS011;42174;50.936;6.858;2023-06-22T06:50:46;3.55;;;3.25;;
56265;SDS011;42174;50.936;6.858;2023-06-22T06:53:30;5.90;;;4.53;;
56265;SDS011;42174;50.936;6.858;2023-06-22T06:56:14;6.13;;;5.20;;
56265;SDS011;42174;50.936;6.858;2023-06-22T06:58:58;6.38;;;5.20;;
56265;SDS011;42174;50.936;6.858;2023-06-22T07:01:43;4.53;;;3.55;;
56265;SDS011;42174;50.936;6.858;2023-06-22T07:04:28;4.43;;;3.92;;
56265;SDS011;42174;50.936;6.858;2023-06-22T07:07:12;7.18;;;4.72;;
56265;SDS011;42174;50.936;6.858;2023-06-22T07:09:56;4.75;;;3.97;;
56265;SDS011;42174;50.936;6.858;2023-06-22T07:12:40;7.30;;;4.55;;
56265;SDS011;42174;50.936;6.858;2023-06-22T07:15:24;5.78;;;5.25;;
56265;SDS011;42174;50.936;6.858;2023-06-22T07:18:08;7.65;;;4.05;;
56265;SDS011;42174;50.936;6.858;2023-06-22T07:20:52;4.88;;;4.25;;
56265;SDS011;42174;50.936;6.858;2023-06-22T07:23:36;5.07;;;4.18;;
56265;SDS011;42174;50.936;6.858;2023-06-22T07:26:20;5.32;;;4.07;;
56265;SDS011;42174;50.936;6.858;2023-06-22T07:29:04;5.18;;;4.25;;
56265;SDS011;42174;50.936;6.858;2023-06-22T07:31:49;7.95;;;4.43;;
56265;SDS011;42174;50.936;6.858;2023-06-22T07:34:34;7.50;;;6.32;;
56265;SDS011;42174;50.936;6.858;2023-06-22T07:37:18;5.13;;;4.63;;
56265;SDS011;42174;50.936;6.858;2023-06-22T07:40:02;5.30;;;4.80;;
56265;SDS011;42174;50.936;6.858;2023-06-22T07:45:35;6.55;;;4.95;;
56265;SDS011;42174;50.936;6.858;2023-06-22T07:48:21;6.25;;;5.28;;
56265;SDS011;42174;50.936;6.858;2023-06-22T07:51:06;6.75;;;5.75;;
56265;SDS011;42174;50.936;6.858;2023-06-22T07:53:50;6.03;;;5.18;;
56265;SDS011;42174;50.936;6.858;2023-06-22T07:56:34;6.72;;;4.50;;
56265;SDS011;42174;50.936;6.858;2023-06-22T07:59:18;5.95;;;4.63;;
56265;SDS011;42174;50.936;6.858;2023-06-22T08:02:02;8.52;;;5.07;;
56265;SDS011;42174;50.936;6.858;2023-06-22T08:04:47;5.35;;;3.90;;
56265;SDS011;42174;50.936;6.858;2023-06-22T08:07:31;6.22;;;4.25;;
56265;SDS011;42174;50.936;6.858;2023-06-22T08:10:16;7.47;;;4.20;;
56265;SDS011;42174;50.936;6.858;2023-06-22T08:13:01;5.47;;;4.88;;
56265;SDS011;42174;50.936;6.858;2023-06-22T08:15:45;6.25;;;4.90;;
56265;SDS011;42174;50.936;6.858;2023-06-22T08:18:29;5.28;;;4.80;;
56265;SDS011;42174;50.936;6.858;2023-06-22T08:21:12;5.43;;;4.50;;
56265;SDS011;42174;50.936;6.858;2023-06-22T08:23:56;5.32;;;3.97;;
56265;SDS011;42174;50.936;6.858;2023-06-22T08:26:40;10.20;;;3.28;;
56265;SDS011;42174;50.936;6.858;2023-06-22T08:29:24;4.57;;;3.90;;
56265;SDS011;42174;50.936;6.858;2023-06-22T08:32:09;4.63;;;4.10;;
56265;SDS011;42174;50.936;6.858;2023-06-22T08:34:56;6.20;;;5.70;;
56265;SDS011;42174;50.936;6.858;2023-06-22T08:37:40;7.45;;;5.60;;
56265;SDS011;42174;50.936;6.858;2023-06-22T08:40:24;5.85;;;4.63;;
56265;SDS011;42174;50.936;6.858;2023-06-22T08:43:09;4.40;;;3.90;;
56265;SDS011;42174;50.936;6.858;2023-06-22T08:45:53;5.63;;;4.10;;
56265;SDS011;42174;50.936;6.858;2023-06-22T08:48:37;4.68;;;4.05;;
56265;SDS011;42174;50.936;6.858;2023-06-22T08:51:21;5.93;;;4.78;;
56265;SDS011;42174;50.936;6.858;2023-06-22T08:54:05;4.63;;;4.22;;
56265;SDS011;42174;50.936;6.858;2023-06-22T08:56:49;4.72;;;4.28;;
56265;SDS011;42174;50.936;6.858;2023-06-22T08:59:33;7.82;;;4.50;;
56265;SDS011;42174;50.936;6.858;2023-06-22T09:02:17;6.43;;;5.82;;
56265;SDS011;42174;50.936;6.858;2023-06-22T09:05:02;4.93;;;3.42;;
56265;SDS011;42174;50.936;6.858;2023-06-22T09:07:46;4.20;;;3.80;;
56265;SDS011;42174;50.936;6.858;2023-06-22T09:10:30;4.32;;;3.75;;
56265;SDS011;42174;50.936;6.858;2023-06-22T09:13:14;6.50;;;4.65;;
56265;SDS011;42174;50.936;6.858;2023-06-22T09:15:58;4.78;;;4.13;;
56265;SDS011;42174;50.936;6.858;2023-06-22T09:18:46;8.40;;;5.07;;
56265;SDS011;42174;50.936;6.858;2023-06-22T09:21:31;4.63;;;3.53;;
56265;SDS011;42174;50.936;6.858;2023-06-22T09:24:14;4.50;;;4.13;;
56265;SDS011;42174;50.936;6.858;2023-06-22T09:26:58;5.88;;;5.32;;
56265;SDS011;42174;50.936;6.858;2023-06-22T09:29:42;4.60;;;3.70;;
56265;SDS011;42174;50.936;6.858;2023-06-22T09:32:26;6.82;;;4.05;;
56265;SDS011;42174;50.936;6.858;2023-06-22T09:35:10;5.20;;;3.72;;
56265;SDS011;42174;50.936;6.858;2023-06-22T09:37:56;5.07;;;4.55;;
56265;SDS011;42174;50.936;6.858;2023-06-22T09:40:40;4.35;;;3.38;;
56265;SDS011;42174;50.936;6.858;2023-06-22T09:43:24;5.32;;;3.80;;
56265;SDS011;42174;50.936;6.858;2023-06-22T09:46:08;5.53;;;3.72;;
56265;SDS011;42174;50.936;6.858;2023-06-22T09:48:53;5.00;;;4.20;;
56265;SDS011;42174;50.936;6.858;2023-06-22T09:51:37;4.35;;;3.83;;
56265;SDS011;42174;50.936;6.858;2023-06-22T09:54:21;6.47;;;4.55;;
56265;SDS011;42174;50.936;6.858;2023-06-22T09:57:05;6.60;;;4.90;;
56265;SDS011;42174;50.936;6.858;2023-06-22T09:59:49;4.43;;;4.00;;
56265;SDS011;42174;50.936;6.858;2023-06-22T10:02:33;5.72;;;3.15;;
56265;SDS011;42174;50.936;6.858;2023-06-22T10:05:17;5.03;;;3.88;;
56265;SDS011;42174;50.936;6.858;2023-06-22T10:08:01;6.90;;;4.65;;
56265;SDS011;42174;50.936;6.858;2023-06-22T10:10:45;5.10;;;4.43;;
56265;SDS011;42174;50.936;6.858;2023-06-22T10:13:29;3.35;;;2.65;;
56265;SDS011;42174;50.936;6.858;2023-06-22T10:16:13;4.88;;;4.38;;
56265;SDS011;42174;50.936;6.858;2023-06-22T10:18:57;5.60;;;3.42;;
56265;SDS011;42174;50.936;6.858;2023-06-22T10:21:41;5.20;;;4.03;;
56265;SDS011;42174;50.936;6.858;2023-06-22T10:24:25;7.32;;;5.15;;
56265;SDS011;42174;50.936;6.858;2023-06-22T10:27:10;6.38;;;3.20;;
56265;SDS011;42174;50.936;6.858;2023-06-22T10:29:54;5.47;;;3.65;;
56265;SDS011;42174;50.936;6.858;2023-06-22T10:32:38;7.93;;;3.92;;
56265;SDS011;42174;50.936;6.858;2023-06-22T10:35:23;7.55;;;5.65;;
56265;SDS011;42174;50.936;6.858;2023-06-22T10:38:07;5.60;;;4.00;;
56265;SDS011;42174;50.936;6.858;2023-06-22T10:40:51;3.92;;;3.53;;
56265;SDS011;42174;50.936;6.858;2023-06-22T10:43:35;7.30;;;5.20;;
56265;SDS011;42174;50.936;6.858;2023-06-22T10:46:19;8.57;;;5.55;;
56265;SDS011;42174;50.936;6.858;2023-06-22T10:49:03;9.93;;;5.65;;
56265;SDS011;42174;50.936;6.858;2023-06-22T10:51:47;7.82;;;5.80;;
56265;SDS011;42174;50.936;6.858;2023-06-22T10:54:32;5.85;;;5.05;;
56265;SDS011;42174;50.936;6.858;2023-06-22T10:57:17;4.65;;;3.90;;
56265;SDS011;42174;50.936;6.858;2023-06-22T11:00:01;9.90;;;6.15;;
56265;SDS011;42174;50.936;6.858;2023-06-22T11:02:45;7.93;;;5.47;;
56265;SDS011;42174;50.936;6.858;2023-06-22T11:05:29;7.82;;;4.93;;
56265;SDS011;42174;50.936;6.858;2023-06-22T11:08:13;10.00;;;7.53;;
56265;SDS011;42174;50.936;6.858;2023-06-22T11:10:57;7.72;;;6.53;;
56265;SDS011;42174;50.936;6.858;2023-06-22T11:13:41;12.63;;;6.72;;
56265;SDS011;42174;50.936;6.858;2023-06-22T11:16:25;9.10;;;8.27;;
56265;SDS011;42174;50.936;6.858;2023-06-22T11:19:09;8.77;;;6.18;;
56265;SDS011;42174;50.936;6.858;2023-06-22T11:21:53;7.95;;;5.40;;
56265;SDS011;42174;50.936;6.858;2023-06-22T11:24:37;7.78;;;6.43;;
56265;SDS011;42174;50.936;6.858;2023-06-22T11:27:21;8.65;;;7.55;;
56265;SDS011;42174;50.936;6.858;2023-06-22T11:30:05;14.52;;;7.82;;
56265;SDS011;42174;50.936;6.858;2023-06-22T11:32:50;9.80;;;7.13;;
56265;SDS011;42174;50.936;6.858;2023-06-22T11:35:34;10.00;;;7.90;;
56265;SDS011;42174;50.936;6.858;2023-06-22T11:38:18;7.55;;;5.57;;
56265;SDS011;42174;50.936;6.858;2023-06-22T11:41:02;9.15;;;7.55;;
56265;SDS011;42174;50.936;6.858;2023-06-22T11:43:46;13.45;;;10.02;;
56265;SDS011;42174;50.936;6.858;2023-06-22T11:46:30;7.28;;;6.20;;
56265;SDS011;42174;50.936;6.858;2023-06-22T11:49:15;7.97;;;5.78;;
56265;SDS011;42174;50.936;6.858;2023-06-22T11:51:59;12.93;;;6.70;;
56265;SDS011;42174;50.936;6.858;2023-06-22T11:54:43;8.73;;;7.63;;
56265;SDS011;42174;50.936;6.858;2023-06-22T11:57:27;7.43;;;6.57;;
56265;SDS011;42174;50.936;6.858;2023-06-22T12:00:12;10.60;;;8.20;;
56265;SDS011;42174;50.936;6.858;2023-06-22T12:03:00;9.60;;;6.85;;
56265;SDS011;42174;50.936;6.858;2023-06-22T12:05:44;9.93;;;7.63;;
56265;SDS011;42174;50.936;6.858;2023-06-22T12:08:28;9.07;;;6.88;;
56265;SDS011;42174;50.936;6.858;2023-06-22T12:11:12;12.25;;;7.55;;
56265;SDS011;42174;50.936;6.858;2023-06-22T12:13:56;10.18;;;7.32;;
56265;SDS011;42174;50.936;6.858;2023-06-22T12:16:45;11.02;;;6.20;;
56265;SDS011;42174;50.936;6.858;2023-06-22T12:19:29;10.90;;;7.50;;
56265;SDS011;42174;50.936;6.858;2023-06-22T12:22:13;9.73;;;7.97;;
56265;SDS011;42174;50.936;6.858;2023-06-22T12:24:56;7.20;;;6.05;;
56265;SDS011;42174;50.936;6.858;2023-06-22T12:27:40;7.78;;;6.82;;
56265;SDS011;42174;50.936;6.858;2023-06-22T12:30:24;11.60;;;8.35;;
56265;SDS011;42174;50.936;6.858;2023-06-22T12:33:08;14.07;;;8.43;;
56265;SDS011;42174;50.936;6.858;2023-06-22T12:35:52;10.63;;;7.93;;
56265;SDS011;42174;50.936;6.858;2023-06-22T12:38:36;14.75;;;8.85;;
56265;SDS011;42174;50.936;6.858;2023-06-22T12:41:20;8.57;;;5.90;;
56265;SDS011;42174;50.936;6.858;2023-06-22T12:44:04;8.68;;;5.90;;
56265;SDS011;42174;50.936;6.858;2023-06-22T12:46:48;11.25;;;8.10;;
56265;SDS011;42174;50.936;6.858;2023-06-22T12:49:32;12.13;;;7.75;;
56265;SDS011;42174;50.936;6.858;2023-06-22T12:52:16;9.77;;;8.63;;
56265;SDS011;42174;50.936;6.858;2023-06-22T12:55:00;11.82;;;8.57;;
56265;SDS011;42174;50.936;6.858;2023-06-22T12:57:44;12.48;;;8.35;;
56265;SDS011;42174;50.936;6.858;2023-06-22T13:00:28;9.45;;;8.43;;
56265;SDS011;42174;50.936;6.858;2023-06-22T13:03:12;9.90;;;8.18;;
56265;SDS011;42174;50.936;6.858;2023-06-22T13:05:56;8.40;;;6.38;;
56265;SDS011;42174;50.936;6.858;2023-06-22T13:08:41;8.88;;;7.75;;
56265;SDS011;42174;50.936;6.858;2023-06-22T13:11:28;13.75;;;8.02;;
56265;SDS011;42174;50.936;6.858;2023-06-22T13:14:13;9.50;;;6.82;;
56265;SDS011;42174;50.936;6.858;2023-06-22T13:16:56;9.18;;;5.93;;
56265;SDS011;42174;50.936;6.858;2023-06-22T13:19:41;6.57;;;5.75;;
56265;SDS011;42174;50.936;6.858;2023-06-22T13:25:16;11.00;;;6.32;;
56265;SDS011;42174;50.936;6.858;2023-06-22T13:28:03;7.03;;;5.10;;
56265;SDS011;42174;50.936;6.858;2023-06-22T13:30:47;5.38;;;4.43;;
56265;SDS011;42174;50.936;6.858;2023-06-22T13:33:31;7.60;;;5.88;;
56265;SDS011;42174;50.936;6.858;2023-06-22T13:36:15;4.85;;;4.15;;
56265;SDS011;42174;50.936;6.858;2023-06-22T13:39:01;4.82;;;4.38;;
56265;SDS011;42174;50.936;6.858;2023-06-22T13:41:45;5.43;;;3.45;;
56265;SDS011;42174;50.936;6.858;2023-06-22T13:44:29;5.50;;;4.07;;
56265;SDS011;42174;50.936;6.858;2023-06-22T13:47:13;6.65;;;4.97;;
56265;SDS011;42174;50.936;6.858;2023-06-22T13:49:57;4.80;;;4.00;;
56265;SDS011;42174;50.936;6.858;2023-06-22T13:52:41;5.85;;;4.35;;
56265;SDS011;42174;50.936;6.858;2023-06-22T13:55:25;6.43;;;4.60;;
56265;SDS011;42174;50.936;6.858;2023-06-22T13:58:10;4.60;;;3.38;;
56265;SDS011;42174;50.936;6.858;2023-06-22T14:00:54;3.85;;;3.13;;
56265;SDS011;42174;50.936;6.858;2023-06-22T14:03:37;6.10;;;2.95;;
56265;SDS011;42174;50.936;6.858;2023-06-22T14:06:21;4.00;;;2.58;;
56265;SDS011;42174;50.936;6.858;2023-06-22T14:09:05;3.35;;;2.53;;
56265;SDS011;42174;50.936;6.858;2023-06-22T14:11:50;4.78;;;3.00;;
56265;SDS011;42174;50.936;6.858;2023-06-22T14:14:34;4.63;;;3.03;;
56265;SDS011;42174;50.936;6.858;2023-06-22T14:17:18;4.63;;;2.85;;
56265;SDS011;42174;50.936;6.858;2023-06-22T14:20:07;4.35;;;2.72;;
56265;SDS011;42174;50.936;6.858;2023-06-22T14:22:52;5.60;;;2.72;;
56265;SDS011;42174;50.936;6.858;2023-06-22T14:25:36;3.22;;;2.25;;
56265;SDS011;42174;50.936;6.858;2023-06-22T14:28:20;3.53;;;2.17;;
56265;SDS011;42174;50.936;6.858;2023-06-22T14:31:04;3.35;;;2.08;;
56265;SDS011;42174;50.936;6.858;2023-06-22T14:33:48;4.70;;;2.63;;
56265;SDS011;42174;50.936;6.858;2023-06-22T14:36:33;3.75;;;3.30;;
56265;SDS011;42174;50.936;6.858;2023-06-22T14:39:17;4.35;;;3.97;;
56265;SDS011;42174;50.936;6.858;2023-06-22T14:42:01;3.55;;;2.75;;
56265;SDS011;42174;50.936;6.858;2023-06-22T14:44:47;7.20;;;5.22;;
56265;SDS011;42174;50.936;6.858;2023-06-22T14:47:32;4.30;;;3.67;;
56265;SDS011;42174;50.936;6.858;2023-06-22T14:50:16;4.93;;;4.53;;
56265;SDS011;42174;50.936;6.858;2023-06-22T14:53:00;4.97;;;3.70;;
56265;SDS011;42174;50.936;6.858;2023-06-22T14:55:44;5.38;;;4.07;;
56265;SDS011;42174;50.936;6.858;2023-06-22T14:58:28;5.85;;;4.50;;
56265;SDS011;42174;50.936;6.858;2023-06-22T15:01:17;4.68;;;4.20;;
56265;SDS011;42174;50.936;6.858;2023-06-22T15:04:01;4.28;;;3.05;;
56265;SDS011;42174;50.936;6.858;2023-06-22T15:06:45;5.78;;;4.30;;
56265;SDS011;42174;50.936;6.858;2023-06-22T15:09:29;4.28;;;2.97;;
56265;SDS011;42174;50.936;6.858;2023-06-22T15:12:13;5.15;;;4.65;;
56265;SDS011;42174;50.936;6.858;2023-06-22T15:14:57;3.90;;;2.92;;
56265;SDS011;42174;50.936;6.858;2023-06-22T15:17:41;4.18;;;2.90;;
56265;SDS011;42174;50.936;6.858;2023-06-22T15:20:25;4.40;;;3.40;;
56265;SDS011;42174;50.936;6.858;2023-06-22T15:23:09;3.63;;;2.88;;
56265;SDS011;42174;50.936;6.858;2023-06-22T15:25:53;4.30;;;2.55;;
56265;SDS011;42174;50.936;6.858;2023-06-22T15:28:39;6.63;;;3.50;;
56265;SDS011;42174;50.936;6.858;2023-06-22T15:31:23;5.68;;;3.13;;
56265;SDS011;42174;50.936;6.858;2023-06-22T15:34:07;4.28;;;2.88;;
56265;SDS011;42174;50.936;6.858;2023-06-22T15:36:51;3.42;;;2.63;;
56265;SDS011;42174;50.936;6.858;2023-06-22T15:39:35;3.22;;;2.70;;
56265;SDS011;42174;50.936;6.858;2023-06-22T15:42:19;5.00;;;3.70;;
56265;SDS011;42174;50.936;6.858;2023-06-22T15:45:03;3.90;;;3.10;;
56265;SDS011;42174;50.936;6.858;2023-06-22T15:47:48;3.55;;;3.08;;
56265;SDS011;42174;50.936;6.858;2023-06-22T15:50:32;4.72;;;3.35;;
56265;SDS011;42174;50.936;6.858;2023-06-22T15:53:17;5.65;;;3.75;;
56265;SDS011;42174;50.936;6.858;2023-06-22T15:56:01;5.63;;;3.90;;
56265;SDS011;42174;50.936;6.858;2023-06-22T15:58:45;7.38;;;4.25;;
56265;SDS011;42174;50.936;6.858;2023-06-22T16:01:29;5.38;;;3.72;;
56265;SDS011;42174;50.936;6.858;2023-06-22T16:04:13;6.15;;;3.05;;
56265;SDS011;42174;50.936;6.858;2023-06-22T16:06:57;4.95;;;4.13;;
56265;SDS011;42174;50.936;6.858;2023-06-22T16:09:41;8.48;;;5.85;;
56265;SDS011;42174;50.936;6.858;2023-06-22T16:12:25;5.03;;;3.95;;
56265;SDS011;42174;50.936;6.858;2023-06-22T16:15:12;8.80;;;4.40;;
56265;SDS011;42174;50.936;6.858;2023-06-22T16:17:56;4.45;;;3.60;;
56265;SDS011;42174;50.936;6.858;2023-06-22T16:20:40;8.05;;;4.82;;
56265;SDS011;42174;50.936;6.858;2023-06-22T16:23:24;5.07;;;4.57;;
56265;SDS011;42174;50.936;6.858;2023-06-22T16:26:08;9.15;;;5.10;;
56265;SDS011;42174;50.936;6.858;2023-06-22T16:28:52;6.72;;;4.55;;
56265;SDS011;42174;50.936;6.858;2023-06-22T16:31:36;8.27;;;3.75;;
56265;SDS011;42174;50.936;6.858;2023-06-22T16:34:20;5.72;;;3.80;;
56265;SDS011;42174;50.936;6.858;2023-06-22T16:37:04;3.83;;;2.60;;
56265;SDS011;42174;50.936;6.858;2023-06-22T16:39:48;6.00;;;4.60;;
56265;SDS011;42174;50.936;6.858;2023-06-22T16:42:32;4.05;;;2.88;;
56265;SDS011;42174;50.936;6.858;2023-06-22T16:45:18;11.27;;;2.88;;
56265;SDS011;42174;50.936;6.858;2023-06-22T16:48:02;4.40;;;3.03;;
56265;SDS011;42174;50.936;6.858;2023-06-22T16:50:46;5.53;;;3.65;;